Flight Track Log - Related Links

Times and Time Zones

All times are in EST time to prevent confusion due to time zone crossing. See the UCA3599 flight status page for this flight to view local times or setup timezone preferences in your user account.


Time Position Orientation Groundspeed Altitude Reporting Facility
EST Latitude Longitude Course Direction KTS MPH feet Rate Location/Type
Tue 06:05:20 AM 42.1611 -75.9744 209° Southwest 127 146 4,200  Level New York Center
Tue 06:06:20 AM 42.1244 -76.0022 209° Southwest 134 154 5,300 1,200 Climbing New York Center
Tue 06:07:20 AM 42.0894 -76.0414 220° Southwest 149 171 6,600 1,350 Climbing New York Center
Tue 06:08:20 AM 42.0439 -76.0853 216° Southwest 174 200 8,000 1,450 Climbing New York Center
Tue 06:09:20 AM 42.0047 -76.1211 214° Southwest 180 207 9,500 1,150 Climbing New York Center
Tue 06:10:20 AM 41.9678 -76.1600 218° Southwest 190 219 10,300 900 Climbing New York Center
Tue 06:11:20 AM 41.9239 -76.2039 217° Southwest 190 219 11,300 1,200 Climbing New York Center
Tue 06:12:20 AM 41.8739 -76.2525 216° Southwest 201 231 12,700 1,300 Climbing New York Center
Tue 06:13:20 AM 41.8281 -76.2961 215° Southwest 201 231 13,900 1,250 Climbing New York Center
Tue 06:14:20 AM 41.7867 -76.3372 217° Southwest 201 231 15,200 1,050 Climbing New York Center
Tue 06:15:20 AM 41.7472 -76.3756 216° Southwest 201 231 16,000 400 Climbing New York Center
Tue 06:16:20 AM 41.7014 -76.4247 219° Southwest 206 237 16,000  Level New York Center
Tue 06:17:20 AM 41.6447 -76.4753 214° Southwest 218 251 16,000  Level New York Center
Tue 06:18:20 AM 41.5944 -76.5267 217° Southwest 228 262 16,000  Level New York Center
Tue 06:19:20 AM 41.5483 -76.5725 217° Southwest 228 262 16,000  Level New York Center
Tue 06:20:20 AM 41.4981 -76.6208 216° Southwest 228 262 16,000  Level New York Center
Tue 06:21:20 AM 41.4411 -76.6767 216° Southwest 228 262 16,000  Level New York Center
Tue 06:22:20 AM 41.3953 -76.7225 217° Southwest 233 268 16,000  Level New York Center
Tue 06:23:20 AM 41.3425 -76.7731 216° Southwest 233 268 16,000  Level New York Center
Tue 06:24:20 AM 41.2769 -76.7922 192° South 233 268 16,000  Level New York Center
Tue 06:25:20 AM 41.2097 -76.8028 187° South 238 274 16,000  Level New York Center
Tue 06:26:20 AM 41.1406 -76.8158 188° South 245 282 16,000  Level New York Center
Tue 06:27:20 AM 41.0708 -76.8317 190° South 256 295 16,000  Level New York Center
Tue 06:28:20 AM 41.0036 -76.8450 189° South 256 295 16,000  Level New York Center
Tue 06:29:20 AM 40.9278 -76.8572 187° South 256 295 16,000  Level New York Center
Tue 06:30:20 AM 40.8667 -76.8711 190° South 256 295 16,000  Level New York Center
Tue 06:31:20 AM 40.7889 -76.8861 188° South 256 295 16,000  Level New York Center
Tue 06:32:20 AM 40.7294 -76.9056 194° South 250 288 16,000  Level New York Center
Tue 06:33:20 AM 40.6556 -76.9261 192° South 250 288 16,000  Level New York Center
Tue 06:34:19 AM 40.5958 -76.9483 196° South 250 288 16,000  Level New York Center
Tue 06:35:19 AM 40.5219 -76.9689 192° South 250 288 16,000  Level New York Center
Tue 06:36:19 AM 40.4606 -76.9878 193° South 250 288 16,000 -50 Level New York Center
Tue 06:37:19 AM 40.3861 -77.0111 193° South 244 281 15,900 -450 Descending New York Center
Tue 06:38:19 AM 40.3247 -77.0303 193° South 244 281 15,100 -900 Descending New York Center
Tue 06:39:19 AM 40.2528 -77.0536 194° South 244 281 14,100 -876 Descending New York Center
Tue 06:41:24 AM 40.1167 -77.1000 195° South 255 293 12,400 -876 Descending Potomac TRACON
Tue 06:42:24 AM 40.0500 -77.1167 191° South 257 296 11,400 -947 Descending Potomac TRACON
Tue 06:43:18 AM 39.9833 -77.1333 191° South 259 298 10,600 -947 Descending Potomac TRACON
Tue 06:44:18 AM 39.9000 -77.1500 189° South 257 296 9,600 -950 Descending Potomac TRACON
Tue 06:45:18 AM 39.8333 -77.1833 201° Southwest 258 297 8,700 -900 Descending Potomac TRACON
Tue 06:46:18 AM 39.7667 -77.2000 191° South 258 297 7,800 -842 Descending Potomac TRACON
Tue 06:47:12 AM 39.7167 -77.2167 194° South 262 302 7,100 -421 Descending Potomac TRACON
Tue 06:48:12 AM 39.6500 -77.2833 218° Southwest 245 282 7,000 -300 Descending Potomac TRACON
Tue 06:49:12 AM 39.6167 -77.3333 229° Southwest 240 276 6,500 -600 Descending Potomac TRACON
Tue 06:50:12 AM 39.5500 -77.3500 191° South 251 289 5,800 -722 Descending Potomac TRACON
Tue 06:51:00 AM 39.4833 -77.3667 191° South 250 288 5,200 -737 Descending Potomac TRACON
Tue 06:52:06 AM 39.4167 -77.4000 201° Southwest 230 265 4,400 -600 Descending Potomac TRACON
Tue 06:53:00 AM 39.3667 -77.4167 194° South 227 261 4,000 -316 Descending Potomac TRACON
Tue 06:54:00 AM 39.3167 -77.4333 194° South 210 242 3,800 -400 Descending Potomac TRACON
Tue 06:55:00 AM 39.2500 -77.4333 180° South 213 245 3,200 -400 Descending Potomac TRACON
Tue 06:56:00 AM 39.2000 -77.4333 180° South 216 249 3,000 -100 Descending Potomac TRACON
Tue 06:57:00 AM 39.1333 -77.4333 180° South 221 254 3,000 -105 Level Potomac TRACON
Tue 06:57:54 AM 39.0833 -77.4333 180° South 222 255 2,800 -737 Descending Potomac TRACON
Tue 06:58:54 AM 39.0167 -77.4333 180° South 205 236 1,600 -1,000 Descending Potomac TRACON
Tue 06:59:54 AM 38.9833 -77.4333 180° South 130 150 800 -800 Descending Potomac TRACON

Login

Don't have an account? Register now (free) for customized features, flight alerts, and more!